createdAt,value
2022-11-25T00:01:52.233Z,7.29
2022-11-25T00:04:21.460Z,7.30
2022-11-25T00:06:50.900Z,7.28
2022-11-25T00:09:20.105Z,7.33
2022-11-25T00:11:49.480Z,7.36
2022-11-25T00:14:18.699Z,7.39
2022-11-25T00:16:48.948Z,7.40
2022-11-25T00:19:18.775Z,7.45
2022-11-25T00:21:48.334Z,7.49
2022-11-25T00:24:17.824Z,7.53
2022-11-25T00:26:47.356Z,7.59
2022-11-25T00:29:16.569Z,7.58
2022-11-25T00:31:45.976Z,7.57
2022-11-25T00:34:16.210Z,7.56
2022-11-25T00:36:45.545Z,7.55
2022-11-25T00:39:17.163Z,7.53
2022-11-25T00:42:05.180Z,7.54
2022-11-25T00:44:38.620Z,7.52
2022-11-25T00:47:20.054Z,7.54
2022-11-25T00:49:51.358Z,7.55
2022-11-25T00:52:23.813Z,7.55
2022-11-25T00:54:53.543Z,7.53
2022-11-25T00:57:24.867Z,7.52
2022-11-25T00:59:54.684Z,7.53
2022-11-25T01:02:24.578Z,7.59
2022-11-25T01:04:53.988Z,7.57
2022-11-25T01:07:23.453Z,7.64
2022-11-25T01:09:52.793Z,7.62
2022-11-25T01:12:22.118Z,7.68
2022-11-25T01:14:53.026Z,7.62
2022-11-25T01:17:22.359Z,7.65
2022-11-25T01:19:51.854Z,7.72
2022-11-25T01:22:21.812Z,7.77
2022-11-25T01:24:51.047Z,7.79
2022-11-25T01:27:21.640Z,7.81
2022-11-25T01:29:51.074Z,7.86
2022-11-25T01:32:20.279Z,7.85
2022-11-25T01:34:49.605Z,7.85
2022-11-25T01:37:18.822Z,7.82
2022-11-25T01:39:48.064Z,7.83
2022-11-25T01:42:18.802Z,7.85
2022-11-25T01:44:51.311Z,7.87
2022-11-25T01:47:24.401Z,7.91
2022-11-25T01:50:05.025Z,7.93
2022-11-25T01:52:39.698Z,7.91
2022-11-25T01:55:11.555Z,7.97
2022-11-25T01:57:47.362Z,7.99
2022-11-25T02:00:17.380Z,8.01
2022-11-25T02:02:47.205Z,8.01
2022-11-25T02:05:19.267Z,8.05
2022-11-25T02:07:51.496Z,8.07
2022-11-25T02:10:26.818Z,8.01
2022-11-25T02:12:56.454Z,8.06
2022-11-25T02:15:25.724Z,8.00
2022-11-25T02:17:55.173Z,7.93
2022-11-25T02:20:25.285Z,7.91
2022-11-25T02:23:01.583Z,7.88
2022-11-25T02:25:35.671Z,7.86
2022-11-25T02:28:12.574Z,7.83
2022-11-25T02:30:42.165Z,7.79
2022-11-25T02:33:11.765Z,7.77
2022-11-25T02:35:48.990Z,7.77
2022-11-25T02:38:28.938Z,7.76
2022-11-25T02:41:16.295Z,7.68
2022-11-25T02:43:47.549Z,7.67
2022-11-25T02:46:22.576Z,7.63
2022-11-25T02:49:08.291Z,7.59
2022-11-25T02:51:26.009Z,7.66
2022-11-25T02:53:56.725Z,7.61
2022-11-25T02:56:29.464Z,7.60
2022-11-25T02:59:00.155Z,7.62
2022-11-25T03:01:31.742Z,7.53
2022-11-25T03:04:01.227Z,7.49
2022-11-25T03:06:31.477Z,7.53
2022-11-25T03:09:00.765Z,7.55
2022-11-25T03:11:31.807Z,7.52
2022-11-25T03:14:01.393Z,7.53
2022-11-25T03:16:30.735Z,7.58
2022-11-25T03:19:00.028Z,7.58
2022-11-25T03:21:29.266Z,7.62
2022-11-25T03:23:58.847Z,7.66
2022-11-25T03:26:28.194Z,7.64
2022-11-25T03:28:58.074Z,7.56
2022-11-25T03:31:27.517Z,7.57
2022-11-25T03:33:57.393Z,7.48
2022-11-25T03:36:26.830Z,7.44
2022-11-25T03:38:56.162Z,7.41
2022-11-25T03:41:25.399Z,7.36
2022-11-25T03:43:54.926Z,7.31
2022-11-25T03:46:24.815Z,7.32
2022-11-25T03:48:55.918Z,7.27
2022-11-25T03:51:25.965Z,7.28
2022-11-25T03:53:55.889Z,7.28
2022-11-25T03:56:25.483Z,7.30
2022-11-25T03:58:54.881Z,7.34
2022-11-25T04:01:24.576Z,7.37
2022-11-25T04:03:54.222Z,7.44
2022-11-25T04:06:24.124Z,7.36
2022-11-25T04:08:54.283Z,7.37
2022-11-25T04:11:25.569Z,7.30
2022-11-25T04:13:55.447Z,7.27
2022-11-25T04:16:26.402Z,7.17
2022-11-25T04:18:56.387Z,7.13
2022-11-25T04:21:25.728Z,7.11
2022-11-25T04:23:55.253Z,7.16
2022-11-25T04:26:24.608Z,7.09
2022-11-25T04:28:53.892Z,7.08
2022-11-25T04:31:23.536Z,7.04
2022-11-25T04:33:52.987Z,7.03
2022-11-25T04:36:23.533Z,7.04
2022-11-25T04:38:53.512Z,7.01
2022-11-25T04:41:24.235Z,7.00
2022-11-25T04:43:53.650Z,7.03
2022-11-25T04:46:26.390Z,7.02
2022-11-25T04:48:56.644Z,7.00
2022-11-25T04:51:26.055Z,6.99
2022-11-25T04:53:57.076Z,6.97
2022-11-25T04:56:26.560Z,7.01
2022-11-25T04:59:14.463Z,7.05
2022-11-25T05:01:45.550Z,7.06
2022-11-25T05:04:29.126Z,7.08
2022-11-25T05:06:58.475Z,7.11
2022-11-25T05:09:28.015Z,7.10
2022-11-25T05:12:05.978Z,7.04
2022-11-25T05:14:36.138Z,7.04
2022-11-25T05:17:06.745Z,7.10
2022-11-25T05:19:36.820Z,7.07
2022-11-25T05:22:06.743Z,7.12
2022-11-25T05:24:36.652Z,7.04
2022-11-25T05:27:06.791Z,7.05
2022-11-25T05:29:36.250Z,7.09
2022-11-25T05:32:06.477Z,7.10
2022-11-25T05:34:36.075Z,7.13
2022-11-25T05:37:07.611Z,7.11
2022-11-25T05:39:37.745Z,7.15
2022-11-25T05:42:11.532Z,7.16
2022-11-25T05:44:41.387Z,7.13
2022-11-25T05:47:10.849Z,7.10
2022-11-25T05:49:41.030Z,7.08
2022-11-25T05:52:10.331Z,7.09
2022-11-25T05:54:41.263Z,7.05
2022-11-25T05:57:10.654Z,7.05
2022-11-25T05:59:44.871Z,7.02
2022-11-25T06:02:15.905Z,6.99
2022-11-25T06:04:45.395Z,7.00
2022-11-25T06:07:14.676Z,6.96
2022-11-25T06:09:44.179Z,6.86
2022-11-25T06:12:13.965Z,6.79
2022-11-25T06:14:44.931Z,6.75
2022-11-25T06:17:14.235Z,6.69
2022-11-25T06:19:48.496Z,6.72
2022-11-25T06:22:17.913Z,6.69
2022-11-25T06:24:52.942Z,6.74
2022-11-25T06:27:18.674Z,6.74
2022-11-25T06:29:48.052Z,6.73
2022-11-25T06:32:17.468Z,6.72
2022-11-25T06:35:00.361Z,6.72
2022-11-25T06:37:37.666Z,6.65
2022-11-25T06:40:09.162Z,6.68
2022-11-25T06:42:39.350Z,6.68
2022-11-25T06:45:09.609Z,6.64
2022-11-25T06:47:39.088Z,6.62
2022-11-25T06:50:08.950Z,6.58
2022-11-25T06:52:38.825Z,6.58
2022-11-25T06:55:08.650Z,6.52
2022-11-25T06:57:37.948Z,6.55
2022-11-25T07:00:08.428Z,6.49
2022-11-25T07:02:41.915Z,6.48
2022-11-25T07:05:09.050Z,6.40
2022-11-25T07:07:38.511Z,6.39
2022-11-25T07:10:08.969Z,6.40
2022-11-25T07:12:38.231Z,6.37
2022-11-25T07:15:08.394Z,6.26
2022-11-25T07:17:37.845Z,6.20
2022-11-25T07:20:08.591Z,6.20
2022-11-25T07:22:37.833Z,6.14
2022-11-25T07:25:09.459Z,6.18
2022-11-25T07:27:38.849Z,6.15
2022-11-25T07:32:40.032Z,6.18
2022-11-25T07:35:09.780Z,6.17
2022-11-25T07:37:39.227Z,6.14
2022-11-25T07:40:09.493Z,6.11
2022-11-25T07:42:38.966Z,6.12
2022-11-25T07:45:10.543Z,6.09
2022-11-25T07:47:41.473Z,6.11
2022-11-25T07:50:11.038Z,6.11
2022-11-25T07:52:41.180Z,6.16
2022-11-25T07:55:10.884Z,6.15
2022-11-25T07:57:40.213Z,6.19
2022-11-25T08:00:10.681Z,6.24
2022-11-25T08:02:42.706Z,6.17
2022-11-25T08:05:12.222Z,6.23
2022-11-25T08:07:41.513Z,6.24
2022-11-25T08:10:11.630Z,6.32
2022-11-25T08:12:40.876Z,6.35
2022-11-25T08:15:10.810Z,6.38
2022-11-25T08:17:40.009Z,6.42
2022-11-25T08:20:10.203Z,6.44
2022-11-25T08:22:39.555Z,6.49
2022-11-25T08:25:09.319Z,6.49
2022-11-25T08:27:38.615Z,6.54
2022-11-25T08:30:08.915Z,6.54
2022-11-25T08:32:39.346Z,6.59
2022-11-25T08:35:09.246Z,6.58
2022-11-25T08:37:38.520Z,6.60
2022-11-25T08:40:08.974Z,6.62
2022-11-25T08:42:39.504Z,6.64
2022-11-25T08:45:09.882Z,6.79
2022-11-25T08:47:39.178Z,6.89
2022-11-25T08:50:10.789Z,6.90
2022-11-25T08:52:40.204Z,7.01
2022-11-25T08:55:09.815Z,7.10
2022-11-25T08:57:39.284Z,7.13
2022-11-25T09:00:09.806Z,7.27
2022-11-25T09:02:39.063Z,7.28
2022-11-25T09:05:08.556Z,7.35
2022-11-25T09:07:38.023Z,7.41
2022-11-25T09:10:10.368Z,7.48
2022-11-25T09:12:39.628Z,7.55
2022-11-25T09:15:10.077Z,7.60
2022-11-25T09:17:39.372Z,7.65
2022-11-25T09:20:09.293Z,7.82
2022-11-25T09:22:38.515Z,7.93
2022-11-25T09:25:08.700Z,7.97
2022-11-25T09:27:37.922Z,8.17
2022-11-25T09:30:08.252Z,8.36
2022-11-25T09:32:37.499Z,8.42
2022-11-25T09:35:07.153Z,8.57
2022-11-25T09:37:36.647Z,8.65
2022-11-25T09:40:07.972Z,8.82
2022-11-25T09:43:14.383Z,8.93
2022-11-25T09:46:19.827Z,9.16
2022-11-25T09:49:13.927Z,9.59
2022-11-25T09:52:01.484Z,10.12
2022-11-25T09:54:43.079Z,10.93
2022-11-25T09:57:23.104Z,11.85
2022-11-25T10:00:04.460Z,12.38
2022-11-25T10:02:41.027Z,12.75
2022-11-25T10:05:44.136Z,13.31
2022-11-25T10:08:22.501Z,13.01
2022-11-25T10:11:03.647Z,12.85
2022-11-25T10:13:44.938Z,13.30
2022-11-25T10:16:17.425Z,12.89
2022-11-25T10:18:49.903Z,13.11
2022-11-25T10:21:19.128Z,13.27
2022-11-25T10:23:48.444Z,13.93
2022-11-25T10:26:20.822Z,13.27
2022-11-25T10:28:56.657Z,14.10
2022-11-25T10:31:35.270Z,13.16
2022-11-25T10:34:07.811Z,13.85
2022-11-25T10:36:39.343Z,13.17
2022-11-25T10:39:29.962Z,13.25
2022-11-25T10:42:07.201Z,13.20
2022-11-25T10:44:38.945Z,13.63
2022-11-25T10:47:20.375Z,13.96
2022-11-25T10:50:09.752Z,13.45
2022-11-25T10:52:47.853Z,13.54
2022-11-25T10:55:20.248Z,13.95
2022-11-25T10:57:49.449Z,14.00
2022-11-25T11:00:37.804Z,14.34
2022-11-25T11:03:19.126Z,13.66
2022-11-25T11:05:51.302Z,13.44
2022-11-25T11:08:25.977Z,13.42
2022-11-25T11:11:18.273Z,13.42
2022-11-25T11:13:48.650Z,13.56
2022-11-25T11:16:29.671Z,12.73
2022-11-25T11:18:59.263Z,12.83
2022-11-25T11:21:34.807Z,12.89
2022-11-25T11:24:06.921Z,12.67
2022-11-25T11:26:37.265Z,12.61
2022-11-25T11:29:13.976Z,12.66
2022-11-25T11:31:43.134Z,12.36
2022-11-25T11:34:21.636Z,12.14
2022-11-25T11:37:17.303Z,11.94
2022-11-25T11:40:06.444Z,11.75
2022-11-25T11:42:50.546Z,11.65
2022-11-25T11:45:48.152Z,11.25
2022-11-25T11:48:42.211Z,10.98
2022-11-25T11:51:14.794Z,10.87
2022-11-25T11:54:01.688Z,10.84
2022-11-25T11:56:36.904Z,10.74
2022-11-25T11:59:23.952Z,10.90
2022-11-25T12:02:08.671Z,10.92
2022-11-25T12:04:44.200Z,10.60
2022-11-25T12:07:23.020Z,10.70
2022-11-25T12:09:55.549Z,10.58
2022-11-25T12:12:28.151Z,10.47
2022-11-25T12:14:58.459Z,10.65
2022-11-25T12:17:30.979Z,10.62
2022-11-25T12:20:10.371Z,10.62
2022-11-25T12:22:45.366Z,10.73
2022-11-25T12:25:29.749Z,10.68
2022-11-25T12:28:11.334Z,10.70
2022-11-25T12:31:05.572Z,10.69
2022-11-25T12:33:52.913Z,10.58
2022-11-25T12:36:39.217Z,10.50
2022-11-25T12:39:36.639Z,10.58
2022-11-25T12:42:09.231Z,10.52
2022-11-25T12:44:51.639Z,10.57
2022-11-25T12:47:21.855Z,10.74
2022-11-25T12:49:53.205Z,10.64
2022-11-25T12:52:34.545Z,10.73
2022-11-25T12:55:19.319Z,10.72
2022-11-25T12:57:51.933Z,10.72
2022-11-25T13:00:42.484Z,10.94
2022-11-25T13:03:15.684Z,11.13
2022-11-25T13:06:12.647Z,11.19
2022-11-25T13:08:48.106Z,10.97
2022-11-25T13:11:36.038Z,10.90
2022-11-25T13:14:18.012Z,10.85
2022-11-25T13:16:49.678Z,10.83
2022-11-25T13:19:20.155Z,11.12
2022-11-25T13:22:06.469Z,10.97
2022-11-25T13:24:43.269Z,10.85
2022-11-25T13:27:36.077Z,10.67
2022-11-25T13:30:07.457Z,10.65
2022-11-25T13:32:40.655Z,10.57
2022-11-25T13:35:33.299Z,10.55
2022-11-25T13:38:04.501Z,10.45
2022-11-25T13:40:37.462Z,10.46
2022-11-25T13:43:09.081Z,10.32
2022-11-25T13:45:40.609Z,10.31
2022-11-25T13:48:22.038Z,10.19
2022-11-25T13:51:10.833Z,10.13
2022-11-25T13:53:29.704Z,10.21
2022-11-25T13:56:23.504Z,10.22
2022-11-25T13:59:13.764Z,10.14
2022-11-25T14:01:49.119Z,10.12
2022-11-25T14:04:21.811Z,10.22
2022-11-25T14:06:56.359Z,10.15
2022-11-25T14:09:37.873Z,10.13
2022-11-25T14:12:36.285Z,10.16
2022-11-25T14:15:30.043Z,10.05
2022-11-25T14:18:17.795Z,9.94
2022-11-25T14:20:52.772Z,9.87
2022-11-25T14:23:44.817Z,9.83
2022-11-25T14:26:42.189Z,9.81
2022-11-25T14:29:03.667Z,9.79
2022-11-25T14:31:38.937Z,9.83
2022-11-25T14:34:23.538Z,9.80
2022-11-25T14:37:08.115Z,9.64
2022-11-25T14:39:40.589Z,9.67
2022-11-25T14:42:13.696Z,9.62
2022-11-25T14:44:51.199Z,9.60
2022-11-25T14:47:28.682Z,9.53
2022-11-25T14:52:36.995Z,9.51
2022-11-25T14:55:07.711Z,9.43
2022-11-25T14:57:42.070Z,9.40
2022-11-25T15:00:15.550Z,9.44
2022-11-25T15:02:59.404Z,9.37
2022-11-25T15:05:34.403Z,9.25
2022-11-25T15:08:06.836Z,9.21
2022-11-25T15:10:45.702Z,9.18
2022-11-25T15:13:33.122Z,9.19
2022-11-25T15:16:14.199Z,9.16
2022-11-25T15:18:52.025Z,9.13
2022-11-25T15:21:24.169Z,9.11
2022-11-25T15:23:53.762Z,9.09
2022-11-25T15:26:29.093Z,9.11
2022-11-25T15:29:00.980Z,9.10
2022-11-25T15:31:33.550Z,9.11
2022-11-25T15:34:05.128Z,9.09
2022-11-25T15:36:35.877Z,9.04
2022-11-25T15:39:20.170Z,8.95
2022-11-25T15:41:51.268Z,8.87
2022-11-25T15:44:23.630Z,8.72
2022-11-25T15:47:15.584Z,8.84
2022-11-25T15:49:50.338Z,8.74
2022-11-25T15:52:21.204Z,8.79
2022-11-25T15:54:52.120Z,8.71
2022-11-25T15:57:24.136Z,8.69
2022-11-25T15:59:59.800Z,8.64
2022-11-25T16:02:45.177Z,8.59
2022-11-25T16:05:18.132Z,8.54
2022-11-25T16:07:56.648Z,8.58
2022-11-25T16:10:34.614Z,8.54
2022-11-25T16:13:29.449Z,8.41
2022-11-25T16:16:11.123Z,8.33
2022-11-25T16:18:58.717Z,8.30
2022-11-25T16:21:31.569Z,8.26
2022-11-25T16:24:19.346Z,8.29
2022-11-25T16:26:54.455Z,8.22
2022-11-25T16:29:29.601Z,8.11
2022-11-25T16:32:00.214Z,8.03
2022-11-25T16:34:30.741Z,7.98
2022-11-25T16:36:59.963Z,8.02
2022-11-25T16:39:29.348Z,7.98
2022-11-25T16:42:01.658Z,7.95
2022-11-25T16:44:32.032Z,7.89
2022-11-25T16:47:02.148Z,7.84
2022-11-25T16:49:32.020Z,7.77
2022-11-25T16:52:01.359Z,7.90
2022-11-25T16:54:31.599Z,8.03
2022-11-25T16:57:01.062Z,8.03
2022-11-25T16:59:33.782Z,8.01
2022-11-25T17:02:05.464Z,7.90
2022-11-25T17:04:34.910Z,7.85
2022-11-25T17:09:37.570Z,7.77
2022-11-25T17:12:08.728Z,7.72
2022-11-25T17:14:38.513Z,7.61
2022-11-25T17:17:08.939Z,7.63
2022-11-25T17:19:38.529Z,7.59
2022-11-25T17:22:26.162Z,7.53
2022-11-25T17:24:57.742Z,7.56
2022-11-25T17:27:30.493Z,7.50
2022-11-25T17:30:02.378Z,7.42
2022-11-25T17:32:33.124Z,7.46
2022-11-25T17:35:02.515Z,7.40
2022-11-25T17:37:32.702Z,7.33
2022-11-25T17:40:02.074Z,7.31
2022-11-25T17:42:34.345Z,7.27
2022-11-25T17:45:03.294Z,7.21
2022-11-25T17:47:32.910Z,7.17
2022-11-25T17:50:02.677Z,7.08
2022-11-25T17:52:31.890Z,7.05
2022-11-25T17:55:01.445Z,7.00
2022-11-25T17:57:30.912Z,7.01
2022-11-25T18:00:00.633Z,6.94
2022-11-25T18:02:30.224Z,6.93
2022-11-25T18:04:59.956Z,6.91
2022-11-25T18:07:29.527Z,6.85
2022-11-25T18:09:58.838Z,6.77
2022-11-25T18:12:30.745Z,6.71
2022-11-25T18:15:01.979Z,6.62
2022-11-25T18:17:31.442Z,6.62
2022-11-25T18:20:00.882Z,6.62
2022-11-25T18:22:30.896Z,6.58
2022-11-25T18:25:03.162Z,6.54
2022-11-25T18:27:32.265Z,6.50
2022-11-25T18:30:02.634Z,6.46
2022-11-25T18:32:31.864Z,6.38
2022-11-25T18:35:01.186Z,6.30
2022-11-25T18:37:30.536Z,6.29
2022-11-25T18:39:59.886Z,6.37
2022-11-25T18:42:29.348Z,6.29
2022-11-25T18:44:58.992Z,6.30
2022-11-25T18:47:28.429Z,6.25
2022-11-25T18:49:57.907Z,6.22
2022-11-25T18:52:27.420Z,6.21
2022-11-25T18:54:56.722Z,6.18
2022-11-25T18:57:26.116Z,6.13
2022-11-25T19:00:17.265Z,6.10
2022-11-25T19:02:26.581Z,6.09
2022-11-25T19:04:55.920Z,6.12
2022-11-25T19:07:25.811Z,6.14
2022-11-25T19:09:55.414Z,6.13
2022-11-25T19:12:24.698Z,6.12
2022-11-25T19:14:55.755Z,6.07
2022-11-25T19:17:26.095Z,6.07
2022-11-25T19:19:55.766Z,6.03
2022-11-25T19:22:25.198Z,6.01
2022-11-25T19:24:56.110Z,6.00
2022-11-25T19:27:26.592Z,5.97
2022-11-25T19:29:56.292Z,5.95
2022-11-25T19:32:27.873Z,5.93
2022-11-25T19:35:00.649Z,5.88
2022-11-25T19:37:31.659Z,5.92
2022-11-25T19:40:02.896Z,5.87
2022-11-25T19:42:32.298Z,5.88
2022-11-25T19:45:03.595Z,5.79
2022-11-25T19:47:32.839Z,5.81
2022-11-25T19:50:03.112Z,5.82
2022-11-25T19:52:35.918Z,5.83
2022-11-25T19:55:16.948Z,5.83
2022-11-25T19:57:46.853Z,5.79
2022-11-25T20:00:17.737Z,5.74
2022-11-25T20:02:49.202Z,5.75
2022-11-25T20:05:36.225Z,5.72
2022-11-25T20:08:06.212Z,5.75
2022-11-25T20:10:35.489Z,5.73
2022-11-25T20:13:07.224Z,5.70
2022-11-25T20:15:37.744Z,5.68
2022-11-25T20:18:11.586Z,5.63
2022-11-25T20:20:41.415Z,5.59
2022-11-25T20:23:28.287Z,5.60
2022-11-25T20:25:57.652Z,5.56
2022-11-25T20:28:31.360Z,5.52
2022-11-25T20:31:00.983Z,5.48
2022-11-25T20:33:30.326Z,5.52
2022-11-25T20:36:02.899Z,5.54
2022-11-25T20:38:31.808Z,5.52
2022-11-25T20:41:02.047Z,5.42
2022-11-25T20:43:33.674Z,5.42
2022-11-25T20:46:04.002Z,5.44
2022-11-25T20:48:35.325Z,5.39
2022-11-25T20:51:06.772Z,5.34
2022-11-25T20:53:36.717Z,5.28
2022-11-25T20:56:06.625Z,5.29
2022-11-25T20:58:37.394Z,5.30
2022-11-25T21:01:07.856Z,5.27
2022-11-25T21:03:37.606Z,5.27
2022-11-25T21:06:10.163Z,5.28
2022-11-25T21:08:39.027Z,5.29
2022-11-25T21:11:08.223Z,5.25
2022-11-25T21:13:37.913Z,5.28
2022-11-25T21:16:07.467Z,5.20
2022-11-25T21:18:37.088Z,5.20
2022-11-25T21:21:09.488Z,5.19
2022-11-25T21:23:39.581Z,5.16
2022-11-25T21:26:14.460Z,5.12
2022-11-25T21:28:45.101Z,5.09
2022-11-25T21:31:22.690Z,5.11
2022-11-25T21:33:54.206Z,5.04
2022-11-25T21:36:26.905Z,4.99
2022-11-25T21:39:05.324Z,4.93
2022-11-25T21:41:35.538Z,4.93
2022-11-25T21:44:06.667Z,4.92
2022-11-25T21:46:36.145Z,4.94
2022-11-25T21:49:11.360Z,4.92
2022-11-25T21:51:41.223Z,4.92
2022-11-25T21:54:11.611Z,4.93
2022-11-25T21:56:41.129Z,4.91
2022-11-25T21:59:13.844Z,4.87
2022-11-25T22:01:43.269Z,4.95
2022-11-25T22:04:17.767Z,4.92
2022-11-25T22:06:48.112Z,4.94
2022-11-25T22:09:17.944Z,4.94
2022-11-25T22:11:52.993Z,4.98
2022-11-25T22:14:26.846Z,4.94
2022-11-25T22:16:57.685Z,4.94
2022-11-25T22:19:29.053Z,4.91
2022-11-25T22:22:00.056Z,4.93
2022-11-25T22:24:30.599Z,4.94
2022-11-25T22:26:59.937Z,4.93
2022-11-25T22:29:31.847Z,4.93
2022-11-25T22:32:01.291Z,4.92
2022-11-25T22:34:30.829Z,4.93
2022-11-25T22:37:00.140Z,4.93
2022-11-25T22:39:29.547Z,4.94
2022-11-25T22:42:05.097Z,4.89
2022-11-25T22:44:37.106Z,4.80
2022-11-25T22:47:07.602Z,4.78
2022-11-25T22:49:44.368Z,4.77
2022-11-25T22:52:25.322Z,4.79
2022-11-25T22:54:54.815Z,4.79
2022-11-25T22:57:24.175Z,4.78
2022-11-25T22:59:53.573Z,4.77
2022-11-25T23:02:28.834Z,4.80
2022-11-25T23:04:58.378Z,4.76
2022-11-25T23:07:27.711Z,4.77
2022-11-25T23:09:57.175Z,4.78
2022-11-25T23:12:26.410Z,4.74
2022-11-25T23:14:55.671Z,4.71
2022-11-25T23:17:26.830Z,4.71
2022-11-25T23:19:56.223Z,4.74
2022-11-25T23:22:25.451Z,4.76
2022-11-25T23:24:54.806Z,4.77
2022-11-25T23:27:24.070Z,4.75
2022-11-25T23:29:53.312Z,4.72
2022-11-25T23:32:22.559Z,4.74
2022-11-25T23:34:52.168Z,4.73
2022-11-25T23:37:21.466Z,4.74
2022-11-25T23:39:52.902Z,4.71
2022-11-25T23:42:22.145Z,4.73
2022-11-25T23:44:51.374Z,4.67
2022-11-25T23:47:23.127Z,4.67
2022-11-25T23:49:53.527Z,4.68
2022-11-25T23:52:27.210Z,4.64
2022-11-25T23:54:56.832Z,4.63
2022-11-25T23:57:29.304Z,4.62
2022-11-25T23:59:58.693Z,4.60
